sensor_id;sensor_type;location;lat;lon;timestamp;pressure;altitude;pressure_sealevel;temperature;humidity
61488;BME280;47351;53.326;-6.298;2023-08-06T00:01:02;101561.39;;;11.82;90.58
61488;BME280;47351;53.326;-6.298;2023-08-06T00:03:55;101560.29;;;11.79;90.66
61488;BME280;47351;53.326;-6.298;2023-08-06T00:07:06;101562.38;;;11.74;90.68
61488;BME280;47351;53.326;-6.298;2023-08-06T00:10:00;101560.80;;;11.70;90.81
61488;BME280;47351;53.326;-6.298;2023-08-06T00:12:51;101563.83;;;11.68;90.92
61488;BME280;47351;53.326;-6.298;2023-08-06T00:15:52;101563.34;;;11.65;91.12
61488;BME280;47351;53.326;-6.298;2023-08-06T00:18:42;101564.58;;;11.64;91.22
61488;BME280;47351;53.326;-6.298;2023-08-06T00:21:33;101563.27;;;11.63;91.34
61488;BME280;47351;53.326;-6.298;2023-08-06T00:24:26;101564.06;;;11.62;91.50
61488;BME280;47351;53.326;-6.298;2023-08-06T00:27:20;101562.20;;;11.60;91.57
61488;BME280;47351;53.326;-6.298;2023-08-06T00:30:11;101562.32;;;11.59;91.64
61488;BME280;47351;53.326;-6.298;2023-08-06T00:33:12;101563.20;;;11.57;91.67
61488;BME280;47351;53.326;-6.298;2023-08-06T00:36:02;101570.00;;;11.55;91.81
61488;BME280;47351;53.326;-6.298;2023-08-06T00:39:13;101572.91;;;11.51;91.80
61488;BME280;47351;53.326;-6.298;2023-08-06T00:42:24;101576.23;;;11.46;91.87
61488;BME280;47351;53.326;-6.298;2023-08-06T00:45:15;101576.36;;;11.43;92.15
61488;BME280;47351;53.326;-6.298;2023-08-06T00:48:25;101579.10;;;11.38;92.18
61488;BME280;47351;53.326;-6.298;2023-08-06T00:51:16;101581.09;;;11.32;92.26
61488;BME280;47351;53.326;-6.298;2023-08-06T00:54:27;101577.27;;;11.27;92.18
61488;BME280;47351;53.326;-6.298;2023-08-06T00:57:19;101578.60;;;11.23;92.26
61488;BME280;47351;53.326;-6.298;2023-08-06T01:00:11;101579.84;;;11.19;92.48
61488;BME280;47351;53.326;-6.298;2023-08-06T01:03:05;101576.35;;;11.16;92.61
61488;BME280;47351;53.326;-6.298;2023-08-06T01:06:06;101577.24;;;11.13;92.82
61488;BME280;47351;53.326;-6.298;2023-08-06T01:08:58;101573.60;;;11.14;93.22
61488;BME280;47351;53.326;-6.298;2023-08-06T01:12:05;101574.29;;;11.15;93.37
61488;BME280;47351;53.326;-6.298;2023-08-06T01:15:00;101576.69;;;11.16;93.44
61488;BME280;47351;53.326;-6.298;2023-08-06T01:17:56;101571.64;;;11.19;93.67
61488;BME280;47351;53.326;-6.298;2023-08-06T01:20:47;101572.08;;;11.21;93.66
61488;BME280;47351;53.326;-6.298;2023-08-06T01:23:39;101572.34;;;11.23;93.78
61488;BME280;47351;53.326;-6.298;2023-08-06T01:26:34;101575.66;;;11.25;94.01
61488;BME280;47351;53.326;-6.298;2023-08-06T01:29:31;101576.85;;;11.28;94.13
61488;BME280;47351;53.326;-6.298;2023-08-06T01:32:24;101572.77;;;11.30;93.93
61488;BME280;47351;53.326;-6.298;2023-08-06T01:35:18;101572.23;;;11.27;94.05
61488;BME280;47351;53.326;-6.298;2023-08-06T01:38:20;101575.42;;;11.26;93.86
61488;BME280;47351;53.326;-6.298;2023-08-06T01:41:10;101579.30;;;11.23;93.81
61488;BME280;47351;53.326;-6.298;2023-08-06T01:44:11;101581.98;;;11.19;93.93
61488;BME280;47351;53.326;-6.298;2023-08-06T01:47:02;101583.05;;;11.17;94.13
61488;BME280;47351;53.326;-6.298;2023-08-06T01:49:55;101586.30;;;11.14;94.38
61488;BME280;47351;53.326;-6.298;2023-08-06T01:52:55;101590.62;;;11.12;94.45
61488;BME280;47351;53.326;-6.298;2023-08-06T01:55:48;101587.88;;;11.09;94.64
61488;BME280;47351;53.326;-6.298;2023-08-06T01:58:59;101594.76;;;11.06;94.75
61488;BME280;47351;53.326;-6.298;2023-08-06T02:01:53;101601.58;;;11.03;94.94
61488;BME280;47351;53.326;-6.298;2023-08-06T02:04:48;101603.86;;;11.00;94.96
61488;BME280;47351;53.326;-6.298;2023-08-06T02:07:41;101604.14;;;10.97;94.95
61488;BME280;47351;53.326;-6.298;2023-08-06T02:10:32;101602.55;;;10.95;95.19
61488;BME280;47351;53.326;-6.298;2023-08-06T02:13:43;101607.07;;;10.94;95.33
61488;BME280;47351;53.326;-6.298;2023-08-06T02:16:38;101606.51;;;10.95;95.65
61488;BME280;47351;53.326;-6.298;2023-08-06T02:19:32;101601.67;;;10.97;95.95
61488;BME280;47351;53.326;-6.298;2023-08-06T02:22:23;101602.91;;;11.01;96.05
61488;BME280;47351;53.326;-6.298;2023-08-06T02:25:35;101605.02;;;11.05;96.28
61488;BME280;47351;53.326;-6.298;2023-08-06T02:28:29;101602.09;;;11.10;96.28
61488;BME280;47351;53.326;-6.298;2023-08-06T02:31:29;101596.96;;;11.15;96.29
61488;BME280;47351;53.326;-6.298;2023-08-06T02:34:32;101597.96;;;11.22;96.11
61488;BME280;47351;53.326;-6.298;2023-08-06T02:37:34;101596.94;;;11.27;96.07
61488;BME280;47351;53.326;-6.298;2023-08-06T02:40:25;101597.64;;;11.33;96.08
61488;BME280;47351;53.326;-6.298;2023-08-06T02:43:18;101600.20;;;11.38;95.78
61488;BME280;47351;53.326;-6.298;2023-08-06T02:46:08;101603.73;;;11.43;95.77
61488;BME280;47351;53.326;-6.298;2023-08-06T02:48:59;101604.05;;;11.45;95.44
61488;BME280;47351;53.326;-6.298;2023-08-06T02:51:54;101600.08;;;11.45;95.39
61488;BME280;47351;53.326;-6.298;2023-08-06T02:54:45;101596.04;;;11.43;95.15
61488;BME280;47351;53.326;-6.298;2023-08-06T02:57:36;101596.27;;;11.38;95.09
61488;BME280;47351;53.326;-6.298;2023-08-06T03:00:27;101597.55;;;11.34;95.11
61488;BME280;47351;53.326;-6.298;2023-08-06T03:03:19;101594.97;;;11.31;95.27
61488;BME280;47351;53.326;-6.298;2023-08-06T03:06:16;101589.90;;;11.30;95.45
61488;BME280;47351;53.326;-6.298;2023-08-06T03:09:10;101592.20;;;11.30;95.57
61488;BME280;47351;53.326;-6.298;2023-08-06T03:12:01;101587.98;;;11.31;95.72
61488;BME280;47351;53.326;-6.298;2023-08-06T03:14:55;101589.80;;;11.33;95.80
61488;BME280;47351;53.326;-6.298;2023-08-06T03:17:56;101586.95;;;11.36;95.78
61488;BME280;47351;53.326;-6.298;2023-08-06T03:20:47;101585.02;;;11.38;95.86
61488;BME280;47351;53.326;-6.298;2023-08-06T03:23:41;101581.04;;;11.39;95.83
61488;BME280;47351;53.326;-6.298;2023-08-06T03:26:35;101578.41;;;11.38;95.85
61488;BME280;47351;53.326;-6.298;2023-08-06T03:29:29;101583.02;;;11.36;95.82
61488;BME280;47351;53.326;-6.298;2023-08-06T03:32:23;101588.31;;;11.33;96.06
61488;BME280;47351;53.326;-6.298;2023-08-06T03:35:14;101589.16;;;11.30;95.95
61488;BME280;47351;53.326;-6.298;2023-08-06T03:38:10;101585.02;;;11.26;95.95
61488;BME280;47351;53.326;-6.298;2023-08-06T03:41:14;101585.94;;;11.22;95.95
61488;BME280;47351;53.326;-6.298;2023-08-06T03:44:16;101585.03;;;11.21;96.14
61488;BME280;47351;53.326;-6.298;2023-08-06T03:47:07;101589.59;;;11.20;96.14
61488;BME280;47351;53.326;-6.298;2023-08-06T03:49:58;101588.39;;;11.21;96.47
61488;BME280;47351;53.326;-6.298;2023-08-06T03:52:52;101587.79;;;11.23;96.64
61488;BME280;47351;53.326;-6.298;2023-08-06T03:55:53;101587.85;;;11.27;96.56
61488;BME280;47351;53.326;-6.298;2023-08-06T03:58:45;101588.42;;;11.30;96.50
61488;BME280;47351;53.326;-6.298;2023-08-06T04:01:36;101589.83;;;11.32;96.52
61488;BME280;47351;53.326;-6.298;2023-08-06T04:04:28;101591.92;;;11.33;96.39
61488;BME280;47351;53.326;-6.298;2023-08-06T04:07:29;101591.75;;;11.33;96.49
61488;BME280;47351;53.326;-6.298;2023-08-06T04:10:22;101589.45;;;11.33;96.34
61488;BME280;47351;53.326;-6.298;2023-08-06T04:13:13;101592.09;;;11.33;96.40
61488;BME280;47351;53.326;-6.298;2023-08-06T04:16:24;101594.06;;;11.33;96.39
61488;BME280;47351;53.326;-6.298;2023-08-06T04:19:15;101593.26;;;11.32;96.35
61488;BME280;47351;53.326;-6.298;2023-08-06T04:22:26;101596.67;;;11.32;96.49
61488;BME280;47351;53.326;-6.298;2023-08-06T04:25:17;101594.55;;;11.32;96.45
61488;BME280;47351;53.326;-6.298;2023-08-06T04:28:30;101597.17;;;11.30;96.48
61488;BME280;47351;53.326;-6.298;2023-08-06T04:31:23;101600.87;;;11.29;96.48
61488;BME280;47351;53.326;-6.298;2023-08-06T04:34:23;101601.73;;;11.27;96.65
61488;BME280;47351;53.326;-6.298;2023-08-06T04:37:33;101602.98;;;11.26;96.56
61488;BME280;47351;53.326;-6.298;2023-08-06T04:40:23;101602.45;;;11.24;96.68
61488;BME280;47351;53.326;-6.298;2023-08-06T04:43:16;101602.90;;;11.23;96.74
61488;BME280;47351;53.326;-6.298;2023-08-06T04:46:10;101606.45;;;11.21;96.63
61488;BME280;47351;53.326;-6.298;2023-08-06T04:49:00;101604.89;;;11.18;96.71
61488;BME280;47351;53.326;-6.298;2023-08-06T04:51:55;101600.69;;;11.15;96.88
61488;BME280;47351;53.326;-6.298;2023-08-06T04:54:56;101607.00;;;11.12;96.89
61488;BME280;47351;53.326;-6.298;2023-08-06T04:57:46;101608.44;;;11.08;96.99
61488;BME280;47351;53.326;-6.298;2023-08-06T05:00:55;101610.02;;;11.07;97.13
61488;BME280;47351;53.326;-6.298;2023-08-06T05:03:46;101609.92;;;11.06;97.23
61488;BME280;47351;53.326;-6.298;2023-08-06T05:06:37;101611.16;;;11.06;97.47
61488;BME280;47351;53.326;-6.298;2023-08-06T05:09:29;101615.27;;;11.06;97.47
61488;BME280;47351;53.326;-6.298;2023-08-06T05:12:23;101622.72;;;11.07;97.53
61488;BME280;47351;53.326;-6.298;2023-08-06T05:15:14;101623.17;;;11.08;97.64
61488;BME280;47351;53.326;-6.298;2023-08-06T05:18:25;101622.52;;;11.09;97.67
61488;BME280;47351;53.326;-6.298;2023-08-06T05:21:24;101628.21;;;11.11;97.81
61488;BME280;47351;53.326;-6.298;2023-08-06T05:24:15;101630.92;;;11.12;97.82
61488;BME280;47351;53.326;-6.298;2023-08-06T05:27:14;101630.28;;;11.14;97.78
61488;BME280;47351;53.326;-6.298;2023-08-06T05:30:08;101632.34;;;11.15;97.80
61488;BME280;47351;53.326;-6.298;2023-08-06T05:33:02;101631.83;;;11.14;97.72
61488;BME280;47351;53.326;-6.298;2023-08-06T05:35:52;101633.67;;;11.14;97.71
61488;BME280;47351;53.326;-6.298;2023-08-06T05:38:43;101637.83;;;11.13;97.80
61488;BME280;47351;53.326;-6.298;2023-08-06T05:41:36;101638.48;;;11.14;97.94
61488;BME280;47351;53.326;-6.298;2023-08-06T05:44:32;101638.86;;;11.16;98.07
61488;BME280;47351;53.326;-6.298;2023-08-06T05:47:26;101644.05;;;11.20;98.21
61488;BME280;47351;53.326;-6.298;2023-08-06T05:50:19;101645.92;;;11.25;98.38
61488;BME280;47351;53.326;-6.298;2023-08-06T05:53:10;101647.06;;;11.34;98.57
61488;BME280;47351;53.326;-6.298;2023-08-06T05:56:05;101646.50;;;11.46;98.46
61488;BME280;47351;53.326;-6.298;2023-08-06T05:58:58;101648.45;;;11.56;98.30
61488;BME280;47351;53.326;-6.298;2023-08-06T06:01:57;101645.73;;;11.66;98.36
61488;BME280;47351;53.326;-6.298;2023-08-06T06:04:48;101649.89;;;11.79;98.40
61488;BME280;47351;53.326;-6.298;2023-08-06T06:07:41;101655.08;;;11.92;98.30
61488;BME280;47351;53.326;-6.298;2023-08-06T06:10:34;101655.77;;;12.10;98.20
61488;BME280;47351;53.326;-6.298;2023-08-06T06:13:27;101655.48;;;12.28;98.00
61488;BME280;47351;53.326;-6.298;2023-08-06T06:16:22;101660.81;;;12.45;97.50
61488;BME280;47351;53.326;-6.298;2023-08-06T06:19:14;101661.80;;;12.59;97.02
61488;BME280;47351;53.326;-6.298;2023-08-06T06:22:06;101664.52;;;12.74;96.74
61488;BME280;47351;53.326;-6.298;2023-08-06T06:25:00;101666.32;;;12.90;96.45
61488;BME280;47351;53.326;-6.298;2023-08-06T06:27:58;101666.79;;;13.07;96.13
61488;BME280;47351;53.326;-6.298;2023-08-06T06:30:52;101669.31;;;13.22;95.58
61488;BME280;47351;53.326;-6.298;2023-08-06T06:33:43;101664.65;;;13.36;95.36
61488;BME280;47351;53.326;-6.298;2023-08-06T06:36:33;101664.15;;;13.52;94.94
61488;BME280;47351;53.326;-6.298;2023-08-06T06:39:24;101660.97;;;13.66;94.28
61488;BME280;47351;53.326;-6.298;2023-08-06T06:42:17;101662.50;;;13.75;93.60
61488;BME280;47351;53.326;-6.298;2023-08-06T06:45:09;101663.26;;;13.85;93.29
61488;BME280;47351;53.326;-6.298;2023-08-06T06:48:04;101665.35;;;13.95;93.00
61488;BME280;47351;53.326;-6.298;2023-08-06T06:50:54;101669.23;;;14.00;92.25
61488;BME280;47351;53.326;-6.298;2023-08-06T06:53:45;101671.25;;;14.06;91.99
61488;BME280;47351;53.326;-6.298;2023-08-06T06:56:36;101674.84;;;14.14;91.65
61488;BME280;47351;53.326;-6.298;2023-08-06T06:59:26;101672.59;;;14.21;91.58
61488;BME280;47351;53.326;-6.298;2023-08-06T07:02:17;101672.11;;;14.23;91.63
61488;BME280;47351;53.326;-6.298;2023-08-06T07:05:08;101676.54;;;14.26;91.28
61488;BME280;47351;53.326;-6.298;2023-08-06T07:07:58;101674.20;;;14.24;90.98
61488;BME280;47351;53.326;-6.298;2023-08-06T07:10:58;101670.88;;;14.20;90.97
61488;BME280;47351;53.326;-6.298;2023-08-06T07:14:01;101670.30;;;14.15;91.03
61488;BME280;47351;53.326;-6.298;2023-08-06T07:16:52;101676.58;;;14.11;90.80
61488;BME280;47351;53.326;-6.298;2023-08-06T07:19:43;101673.16;;;14.11;90.99
61488;BME280;47351;53.326;-6.298;2023-08-06T07:22:33;101673.77;;;14.13;91.22
61488;BME280;47351;53.326;-6.298;2023-08-06T07:25:27;101671.71;;;14.13;91.21
61488;BME280;47351;53.326;-6.298;2023-08-06T07:28:18;101669.74;;;14.16;91.40
61488;BME280;47351;53.326;-6.298;2023-08-06T07:31:09;101671.38;;;14.19;91.40
61488;BME280;47351;53.326;-6.298;2023-08-06T07:34:02;101672.77;;;14.26;91.13
61488;BME280;47351;53.326;-6.298;2023-08-06T07:36:55;101676.34;;;14.38;91.11
61488;BME280;47351;53.326;-6.298;2023-08-06T07:39:52;101674.53;;;14.49;90.72
61488;BME280;47351;53.326;-6.298;2023-08-06T07:42:45;101674.51;;;14.66;90.13
61488;BME280;47351;53.326;-6.298;2023-08-06T07:45:43;101678.12;;;14.93;89.37
61488;BME280;47351;53.326;-6.298;2023-08-06T07:48:35;101678.05;;;15.44;88.10
61488;BME280;47351;53.326;-6.298;2023-08-06T07:51:27;101674.58;;;16.20;86.26
61488;BME280;47351;53.326;-6.298;2023-08-06T07:54:17;101669.21;;;16.85;84.95
61488;BME280;47351;53.326;-6.298;2023-08-06T07:57:09;101667.84;;;17.48;83.09
61488;BME280;47351;53.326;-6.298;2023-08-06T08:00:04;101665.64;;;18.26;81.28
61488;BME280;47351;53.326;-6.298;2023-08-06T08:03:00;101661.00;;;18.58;78.88
61488;BME280;47351;53.326;-6.298;2023-08-06T08:05:53;101662.90;;;18.40;77.40
61488;BME280;47351;53.326;-6.298;2023-08-06T08:08:47;101666.67;;;18.86;76.79
61488;BME280;47351;53.326;-6.298;2023-08-06T08:11:40;101668.16;;;19.05;76.16
61488;BME280;47351;53.326;-6.298;2023-08-06T08:14:31;101664.10;;;19.62;74.10
61488;BME280;47351;53.326;-6.298;2023-08-06T08:17:25;101662.83;;;20.35;72.12
61488;BME280;47351;53.326;-6.298;2023-08-06T08:20:16;101657.33;;;20.72;70.71
61488;BME280;47351;53.326;-6.298;2023-08-06T08:23:07;101660.09;;;21.14;69.68
61488;BME280;47351;53.326;-6.298;2023-08-06T08:25:57;101654.41;;;21.55;68.88
61488;BME280;47351;53.326;-6.298;2023-08-06T08:28:48;101651.23;;;22.21;67.89
61488;BME280;47351;53.326;-6.298;2023-08-06T08:31:38;101654.45;;;21.88;66.61
61488;BME280;47351;53.326;-6.298;2023-08-06T08:34:29;101657.34;;;21.50;66.53
61488;BME280;47351;53.326;-6.298;2023-08-06T08:37:19;101654.56;;;21.82;65.78
61488;BME280;47351;53.326;-6.298;2023-08-06T08:40:10;101653.86;;;21.81;66.11
61488;BME280;47351;53.326;-6.298;2023-08-06T08:43:01;101657.05;;;22.59;64.21
61488;BME280;47351;53.326;-6.298;2023-08-06T08:45:52;101659.86;;;22.56;63.55
61488;BME280;47351;53.326;-6.298;2023-08-06T08:48:44;101655.46;;;22.65;62.32
61488;BME280;47351;53.326;-6.298;2023-08-06T08:51:35;101651.05;;;23.17;61.33
61488;BME280;47351;53.326;-6.298;2023-08-06T08:54:26;101651.20;;;23.20;60.79
61488;BME280;47351;53.326;-6.298;2023-08-06T08:57:17;101653.86;;;22.53;61.23
61488;BME280;47351;53.326;-6.298;2023-08-06T09:00:08;101654.95;;;23.19;59.16
61488;BME280;47351;53.326;-6.298;2023-08-06T09:02:59;101649.55;;;24.45;57.24
61488;BME280;47351;53.326;-6.298;2023-08-06T09:05:52;101644.52;;;25.61;54.77
61488;BME280;47351;53.326;-6.298;2023-08-06T09:08:46;101638.30;;;26.33;52.17
61488;BME280;47351;53.326;-6.298;2023-08-06T09:11:39;101639.92;;;26.74;51.84
61488;BME280;47351;53.326;-6.298;2023-08-06T09:14:30;101637.93;;;27.69;50.72
61488;BME280;47351;53.326;-6.298;2023-08-06T09:17:20;101642.83;;;27.51;50.07
61488;BME280;47351;53.326;-6.298;2023-08-06T09:20:12;101645.84;;;26.60;50.02
61488;BME280;47351;53.326;-6.298;2023-08-06T09:23:08;101648.02;;;25.37;50.84
61488;BME280;47351;53.326;-6.298;2023-08-06T09:25:59;101656.41;;;23.83;52.54
61488;BME280;47351;53.326;-6.298;2023-08-06T09:28:51;101658.96;;;22.38;54.22
61488;BME280;47351;53.326;-6.298;2023-08-06T09:31:45;101662.77;;;21.20;56.09
61488;BME280;47351;53.326;-6.298;2023-08-06T09:34:38;101668.91;;;20.57;58.21
61488;BME280;47351;53.326;-6.298;2023-08-06T09:37:30;101669.27;;;20.29;59.04
61488;BME280;47351;53.326;-6.298;2023-08-06T09:43:18;101662.69;;;21.92;57.67
61488;BME280;47351;53.326;-6.298;2023-08-06T09:46:13;101659.20;;;22.50;57.46
61488;BME280;47351;53.326;-6.298;2023-08-06T09:49:05;101658.27;;;23.07;56.25
61488;BME280;47351;53.326;-6.298;2023-08-06T09:51:59;101658.66;;;23.45;54.83
61488;BME280;47351;53.326;-6.298;2023-08-06T09:54:50;101656.96;;;24.26;53.44
61488;BME280;47351;53.326;-6.298;2023-08-06T09:57:42;101652.27;;;25.19;51.15
61488;BME280;47351;53.326;-6.298;2023-08-06T10:00:33;101649.79;;;26.69;49.20
61488;BME280;47351;53.326;-6.298;2023-08-06T10:03:28;101646.92;;;28.34;46.84
61488;BME280;47351;53.326;-6.298;2023-08-06T10:06:19;101649.75;;;29.77;45.03
61488;BME280;47351;53.326;-6.298;2023-08-06T10:09:10;101645.86;;;30.78;42.27
61488;BME280;47351;53.326;-6.298;2023-08-06T10:12:01;101646.55;;;31.55;40.95
61488;BME280;47351;53.326;-6.298;2023-08-06T10:14:52;101642.00;;;32.45;40.02
61488;BME280;47351;53.326;-6.298;2023-08-06T10:17:44;101646.54;;;33.22;38.48
61488;BME280;47351;53.326;-6.298;2023-08-06T10:20:39;101642.36;;;33.58;35.33
61488;BME280;47351;53.326;-6.298;2023-08-06T10:23:36;101638.85;;;33.49;34.90
61488;BME280;47351;53.326;-6.298;2023-08-06T10:26:30;101644.48;;;31.72;36.84
61488;BME280;47351;53.326;-6.298;2023-08-06T10:35:34;101652.86;;;26.65;42.99
61488;BME280;47351;53.326;-6.298;2023-08-06T10:38:25;101655.02;;;25.65;44.47
61488;BME280;47351;53.326;-6.298;2023-08-06T10:41:28;101654.29;;;24.63;45.09
61488;BME280;47351;53.326;-6.298;2023-08-06T10:44:19;101649.94;;;23.70;45.76
61488;BME280;47351;53.326;-6.298;2023-08-06T10:47:28;101658.06;;;23.14;47.39
61488;BME280;47351;53.326;-6.298;2023-08-06T10:50:19;101661.02;;;22.79;48.91
61488;BME280;47351;53.326;-6.298;2023-08-06T10:53:10;101658.80;;;24.03;47.47
61488;BME280;47351;53.326;-6.298;2023-08-06T10:56:03;101647.49;;;26.78;44.75
61488;BME280;47351;53.326;-6.298;2023-08-06T10:59:05;101648.28;;;29.17;42.11
61488;BME280;47351;53.326;-6.298;2023-08-06T11:01:55;101645.05;;;31.01;40.10
61488;BME280;47351;53.326;-6.298;2023-08-06T11:04:47;101641.78;;;32.50;37.81
61488;BME280;47351;53.326;-6.298;2023-08-06T11:07:38;101637.64;;;32.87;35.66
61488;BME280;47351;53.326;-6.298;2023-08-06T11:10:29;101642.85;;;33.51;34.28
61488;BME280;47351;53.326;-6.298;2023-08-06T11:13:20;101653.73;;;31.94;34.26
61488;BME280;47351;53.326;-6.298;2023-08-06T11:16:10;101664.06;;;29.24;37.29
61488;BME280;47351;53.326;-6.298;2023-08-06T11:19:01;101676.58;;;26.74;40.21
61488;BME280;47351;53.326;-6.298;2023-08-06T11:21:52;101686.05;;;24.54;43.86
61488;BME280;47351;53.326;-6.298;2023-08-06T11:24:43;101687.52;;;22.92;47.37
61488;BME280;47351;53.326;-6.298;2023-08-06T11:27:33;101688.58;;;21.92;50.24
61488;BME280;47351;53.326;-6.298;2023-08-06T11:30:24;101686.36;;;21.18;52.56
61488;BME280;47351;53.326;-6.298;2023-08-06T11:33:17;101685.83;;;20.69;54.76
61488;BME280;47351;53.326;-6.298;2023-08-06T11:36:10;101685.86;;;20.49;56.27
61488;BME280;47351;53.326;-6.298;2023-08-06T11:39:01;101681.31;;;20.45;56.69
61488;BME280;47351;53.326;-6.298;2023-08-06T11:41:54;101679.06;;;20.64;57.07
61488;BME280;47351;53.326;-6.298;2023-08-06T11:44:45;101681.59;;;21.05;56.42
61488;BME280;47351;53.326;-6.298;2023-08-06T11:47:36;101679.83;;;21.83;55.26
61488;BME280;47351;53.326;-6.298;2023-08-06T11:50:28;101667.76;;;23.73;52.75
61488;BME280;47351;53.326;-6.298;2023-08-06T11:53:19;101660.55;;;26.16;49.76
61488;BME280;47351;53.326;-6.298;2023-08-06T11:56:10;101655.07;;;27.97;47.58
61488;BME280;47351;53.326;-6.298;2023-08-06T11:59:00;101651.42;;;28.76;45.55
61488;BME280;47351;53.326;-6.298;2023-08-06T12:01:51;101648.12;;;28.29;45.65
61488;BME280;47351;53.326;-6.298;2023-08-06T12:05:02;101647.23;;;28.33;45.52
61488;BME280;47351;53.326;-6.298;2023-08-06T12:07:54;101643.56;;;30.70;42.24
61488;BME280;47351;53.326;-6.298;2023-08-06T12:10:45;101637.52;;;32.63;39.96
61488;BME280;47351;53.326;-6.298;2023-08-06T12:13:36;101637.65;;;34.10;37.56
61488;BME280;47351;53.326;-6.298;2023-08-06T12:16:27;101641.23;;;34.31;36.92
61488;BME280;47351;53.326;-6.298;2023-08-06T12:19:18;101641.27;;;33.78;35.67
61488;BME280;47351;53.326;-6.298;2023-08-06T12:22:08;101635.23;;;34.51;34.29
61488;BME280;47351;53.326;-6.298;2023-08-06T12:24:59;101628.45;;;35.10;32.67
61488;BME280;47351;53.326;-6.298;2023-08-06T12:27:49;101623.17;;;35.46;32.08
61488;BME280;47351;53.326;-6.298;2023-08-06T12:30:40;101623.31;;;36.13;32.00
61488;BME280;47351;53.326;-6.298;2023-08-06T12:33:32;101621.20;;;36.78;31.29
61488;BME280;47351;53.326;-6.298;2023-08-06T12:36:22;101618.56;;;35.44;32.37
61488;BME280;47351;53.326;-6.298;2023-08-06T12:39:13;101628.83;;;32.99;33.24
61488;BME280;47351;53.326;-6.298;2023-08-06T12:42:03;101638.30;;;30.58;35.44
61488;BME280;47351;53.326;-6.298;2023-08-06T12:44:58;101640.55;;;28.59;37.87
61488;BME280;47351;53.326;-6.298;2023-08-06T12:47:48;101636.10;;;28.28;38.08
61488;BME280;47351;53.326;-6.298;2023-08-06T12:50:39;101626.14;;;30.14;36.44
61488;BME280;47351;53.326;-6.298;2023-08-06T12:53:30;101621.41;;;32.24;35.37
61488;BME280;47351;53.326;-6.298;2023-08-06T12:56:20;101625.38;;;34.00;32.82
61488;BME280;47351;53.326;-6.298;2023-08-06T12:59:14;101624.31;;;34.15;31.42
61488;BME280;47351;53.326;-6.298;2023-08-06T13:02:05;101628.55;;;33.10;32.72
61488;BME280;47351;53.326;-6.298;2023-08-06T13:04:55;101631.39;;;31.74;33.57
61488;BME280;47351;53.326;-6.298;2023-08-06T13:07:47;101634.52;;;30.27;35.30
61488;BME280;47351;53.326;-6.298;2023-08-06T13:10:37;101636.88;;;28.89;36.29
61488;BME280;47351;53.326;-6.298;2023-08-06T13:13:28;101640.61;;;27.53;37.68
61488;BME280;47351;53.326;-6.298;2023-08-06T13:16:18;101638.96;;;26.64;39.34
61488;BME280;47351;53.326;-6.298;2023-08-06T13:19:09;101641.00;;;26.42;39.28
61488;BME280;47351;53.326;-6.298;2023-08-06T13:22:03;101642.01;;;27.22;38.51
61488;BME280;47351;53.326;-6.298;2023-08-06T13:24:55;101633.84;;;29.21;36.43
61488;BME280;47351;53.326;-6.298;2023-08-06T13:27:45;101629.40;;;30.25;35.72
61488;BME280;47351;53.326;-6.298;2023-08-06T13:30:37;101622.39;;;30.59;34.88
61488;BME280;47351;53.326;-6.298;2023-08-06T13:33:31;101621.80;;;30.20;34.79
61488;BME280;47351;53.326;-6.298;2023-08-06T13:36:21;101620.02;;;30.61;34.71
61488;BME280;47351;53.326;-6.298;2023-08-06T13:39:12;101627.31;;;30.18;35.24
61488;BME280;47351;53.326;-6.298;2023-08-06T13:42:05;101630.86;;;28.90;36.50
61488;BME280;47351;53.326;-6.298;2023-08-06T13:44:55;101629.70;;;28.10;36.91
61488;BME280;47351;53.326;-6.298;2023-08-06T13:47:52;101635.67;;;27.82;36.87
61488;BME280;47351;53.326;-6.298;2023-08-06T13:50:42;101641.52;;;28.89;35.98
61488;BME280;47351;53.326;-6.298;2023-08-06T13:53:34;101639.88;;;29.21;35.84
61488;BME280;47351;53.326;-6.298;2023-08-06T13:56:24;101637.95;;;28.84;36.35
61488;BME280;47351;53.326;-6.298;2023-08-06T13:59:14;101637.47;;;27.91;37.05
61488;BME280;47351;53.326;-6.298;2023-08-06T14:02:05;101644.67;;;26.97;38.24
61488;BME280;47351;53.326;-6.298;2023-08-06T14:04:56;101650.38;;;26.98;38.79
61488;BME280;47351;53.326;-6.298;2023-08-06T14:07:47;101648.63;;;27.98;38.34
61488;BME280;47351;53.326;-6.298;2023-08-06T14:10:38;101647.04;;;28.99;36.37
61488;BME280;47351;53.326;-6.298;2023-08-06T14:13:28;101646.88;;;29.60;34.99
61488;BME280;47351;53.326;-6.298;2023-08-06T14:16:19;101654.32;;;29.54;33.74
61488;BME280;47351;53.326;-6.298;2023-08-06T14:19:09;101653.79;;;28.52;34.40
61488;BME280;47351;53.326;-6.298;2023-08-06T14:22:00;101650.23;;;28.74;33.67
61488;BME280;47351;53.326;-6.298;2023-08-06T14:24:50;101651.64;;;29.02;33.63
61488;BME280;47351;53.326;-6.298;2023-08-06T14:27:41;101655.54;;;29.05;33.98
61488;BME280;47351;53.326;-6.298;2023-08-06T14:30:31;101658.52;;;28.58;34.46
61488;BME280;47351;53.326;-6.298;2023-08-06T14:33:22;101663.34;;;28.21;35.09
61488;BME280;47351;53.326;-6.298;2023-08-06T14:36:16;101664.02;;;28.27;34.60
61488;BME280;47351;53.326;-6.298;2023-08-06T14:39:06;101670.75;;;28.24;35.19
61488;BME280;47351;53.326;-6.298;2023-08-06T14:41:57;101667.70;;;28.29;35.36
61488;BME280;47351;53.326;-6.298;2023-08-06T14:44:47;101664.35;;;28.62;35.64
61488;BME280;47351;53.326;-6.298;2023-08-06T14:47:37;101659.46;;;28.67;35.72
61488;BME280;47351;53.326;-6.298;2023-08-06T14:50:28;101661.39;;;28.42;36.36
61488;BME280;47351;53.326;-6.298;2023-08-06T14:53:19;101666.10;;;27.91;36.85
61488;BME280;47351;53.326;-6.298;2023-08-06T14:56:09;101671.29;;;27.44;37.28
61488;BME280;47351;53.326;-6.298;2023-08-06T14:58:59;101671.18;;;26.88;37.44
61488;BME280;47351;53.326;-6.298;2023-08-06T15:01:50;101673.91;;;26.33;38.37
61488;BME280;47351;53.326;-6.298;2023-08-06T15:04:43;101674.00;;;25.95;39.12